createdAt,value
2022-11-26T00:01:53.906Z,37.90
2022-11-26T00:04:43.377Z,39.20
2022-11-26T00:07:34.364Z,38.00
2022-11-26T00:10:26.098Z,41.27
2022-11-26T00:13:21.449Z,39.47
2022-11-26T00:16:12.053Z,40.60
2022-11-26T00:19:01.233Z,38.90
2022-11-26T00:21:50.528Z,39.73
2022-11-26T00:24:40.095Z,40.93
2022-11-26T00:27:30.018Z,38.73
2022-11-26T00:30:23.362Z,40.60
2022-11-26T00:33:12.545Z,40.07
2022-11-26T00:36:05.679Z,40.77
2022-11-26T00:38:58.764Z,41.40
2022-11-26T00:41:51.046Z,40.83
2022-11-26T00:44:40.544Z,39.50
2022-11-26T00:47:31.307Z,43.57
2022-11-26T00:50:22.659Z,41.10
2022-11-26T00:53:14.158Z,43.17
2022-11-26T00:56:04.294Z,43.10
2022-11-26T00:58:54.022Z,44.90
2022-11-26T01:01:43.416Z,43.50
2022-11-26T01:04:35.280Z,42.10
2022-11-26T01:07:24.286Z,43.37
2022-11-26T01:10:21.455Z,42.83
2022-11-26T01:13:12.682Z,43.87
2022-11-26T01:16:02.785Z,43.93
2022-11-26T01:18:53.262Z,43.30
2022-11-26T01:21:44.333Z,42.80
2022-11-26T01:24:33.477Z,39.50
2022-11-26T01:27:23.502Z,42.00
2022-11-26T01:30:18.165Z,43.37
2022-11-26T01:33:07.706Z,43.93
2022-11-26T01:35:57.382Z,42.20
2022-11-26T01:38:48.168Z,42.07
2022-11-26T01:41:46.918Z,40.07
2022-11-26T01:44:37.877Z,40.73
2022-11-26T01:47:29.092Z,38.57
2022-11-26T01:50:55.641Z,40.10
2022-11-26T01:53:51.000Z,40.20
2022-11-26T01:56:42.585Z,38.60
2022-11-26T01:59:36.015Z,39.27
2022-11-26T02:02:26.703Z,39.93
2022-11-26T02:05:22.104Z,38.77
2022-11-26T02:08:13.097Z,39.33
2022-11-26T02:11:14.262Z,39.73
2022-11-26T02:14:07.218Z,39.90
2022-11-26T02:17:06.044Z,39.87
2022-11-26T02:20:21.648Z,38.37
2022-11-26T02:23:41.261Z,38.93
2022-11-26T02:27:02.489Z,37.87
2022-11-26T02:30:14.046Z,42.03
2022-11-26T02:33:08.758Z,39.03
2022-11-26T02:36:01.246Z,39.13
2022-11-26T02:38:51.704Z,40.30
2022-11-26T02:41:44.783Z,39.37
2022-11-26T02:44:42.408Z,39.70
2022-11-26T02:47:35.717Z,42.30
2022-11-26T02:50:28.057Z,43.80
2022-11-26T02:53:21.388Z,43.70
2022-11-26T02:56:13.897Z,42.13
2022-11-26T02:59:04.008Z,42.57
2022-11-26T03:01:57.480Z,43.30
2022-11-26T03:04:51.730Z,41.20
2022-11-26T03:07:42.388Z,40.87
2022-11-26T03:10:32.917Z,42.50
2022-11-26T03:13:22.020Z,39.47
2022-11-26T03:16:11.505Z,43.67
2022-11-26T03:19:00.920Z,41.63
2022-11-26T03:21:51.542Z,41.93
2022-11-26T03:24:41.179Z,43.70
2022-11-26T03:27:30.662Z,44.10
2022-11-26T03:30:21.400Z,42.93
2022-11-26T03:33:10.813Z,43.73
2022-11-26T03:35:59.912Z,42.30
2022-11-26T03:38:50.346Z,42.93
2022-11-26T03:41:39.591Z,42.87
2022-11-26T03:44:28.974Z,41.93
2022-11-26T03:47:18.302Z,41.37
2022-11-26T03:50:08.839Z,42.67
2022-11-26T03:52:58.342Z,42.13
2022-11-26T03:55:49.629Z,42.07
2022-11-26T03:58:38.959Z,40.87
2022-11-26T04:01:28.133Z,41.63
2022-11-26T04:04:17.850Z,42.50
2022-11-26T04:07:07.364Z,42.67
2022-11-26T04:09:56.577Z,41.53
2022-11-26T04:12:47.461Z,42.97
2022-11-26T04:15:36.762Z,42.57
2022-11-26T04:18:27.927Z,42.10
2022-11-26T04:21:17.061Z,41.87
2022-11-26T04:24:07.076Z,42.57
2022-11-26T04:26:56.368Z,42.20
2022-11-26T04:29:47.769Z,42.37
2022-11-26T04:32:37.313Z,41.40
2022-11-26T04:35:26.567Z,43.57
2022-11-26T04:38:15.994Z,42.73
2022-11-26T04:41:05.111Z,43.77
2022-11-26T04:43:54.795Z,42.13
2022-11-26T04:46:45.372Z,41.80
2022-11-26T04:49:34.491Z,41.93
2022-11-26T07:21:23.107Z,27.77
2022-11-26T07:24:12.465Z,29.50
2022-11-26T07:27:02.058Z,27.90
2022-11-26T07:29:52.114Z,29.33
2022-11-26T07:32:41.948Z,29.47
2022-11-26T07:35:33.158Z,29.30
2022-11-26T07:38:23.104Z,30.00
2022-11-26T07:41:15.069Z,29.23
2022-11-26T07:44:04.892Z,29.83
2022-11-26T07:46:53.686Z,28.80
2022-11-26T07:49:42.879Z,28.63
2022-11-26T07:52:32.613Z,30.13
2022-11-26T07:55:22.945Z,30.57
2022-11-26T07:58:11.722Z,30.70
2022-11-26T08:01:09.112Z,31.93
2022-11-26T08:04:00.139Z,30.67
2022-11-26T08:06:49.271Z,33.27
2022-11-26T08:09:38.259Z,31.57
2022-11-26T08:12:29.817Z,31.10
2022-11-26T08:15:19.115Z,33.77
2022-11-26T08:18:08.380Z,31.27
2022-11-26T08:20:57.738Z,32.77
2022-11-26T08:23:46.760Z,35.60
2022-11-26T08:26:43.549Z,33.60
2022-11-26T08:29:37.335Z,35.03
2022-11-26T08:32:26.783Z,34.80
2022-11-26T08:35:16.285Z,34.53
2022-11-26T08:38:06.340Z,34.20
2022-11-26T08:40:56.948Z,36.43
2022-11-26T08:46:56.644Z,36.50
2022-11-26T08:49:48.639Z,34.90
2022-11-26T08:52:37.841Z,33.23
2022-11-26T08:55:27.180Z,37.40
2022-11-26T08:58:16.440Z,39.20
2022-11-26T09:01:10.686Z,38.57
2022-11-26T09:04:03.257Z,39.07
2022-11-26T09:06:54.270Z,39.87
2022-11-26T09:09:43.800Z,39.90
2022-11-26T09:12:32.876Z,37.77
2022-11-26T09:15:23.009Z,38.03
2022-11-26T09:18:12.965Z,39.70
2022-11-26T09:21:06.108Z,42.43
2022-11-26T09:23:55.802Z,42.93
2022-11-26T09:26:45.974Z,40.33
2022-11-26T09:29:35.062Z,42.77
2022-11-26T09:32:28.234Z,39.83
2022-11-26T09:35:21.552Z,42.37
2022-11-26T09:38:11.908Z,43.00
2022-11-26T09:41:09.479Z,43.57
2022-11-26T09:44:13.228Z,44.87
2022-11-26T09:47:12.725Z,44.73
2022-11-26T09:50:09.595Z,42.53
2022-11-26T09:53:03.073Z,44.53
2022-11-26T09:55:56.310Z,46.33
2022-11-26T09:58:52.040Z,47.03
2022-11-26T10:01:43.027Z,48.50
2022-11-26T10:04:38.109Z,51.60
2022-11-26T10:07:39.388Z,48.17
2022-11-26T10:10:35.568Z,53.03
2022-11-26T10:13:34.359Z,51.63
2022-11-26T10:16:28.610Z,51.07
2022-11-26T10:19:27.371Z,51.33
2022-11-26T10:22:23.863Z,56.00
2022-11-26T10:25:17.351Z,54.47
2022-11-26T10:28:17.419Z,53.80
2022-11-26T10:31:18.768Z,51.40
2022-11-26T10:34:16.277Z,52.43
2022-11-26T10:37:04.877Z,53.30
2022-11-26T10:40:03.140Z,54.47
2022-11-26T10:43:02.908Z,50.47
2022-11-26T10:45:53.136Z,49.03
2022-11-26T10:48:44.210Z,48.53
2022-11-26T10:51:33.638Z,45.83
2022-11-26T10:54:31.756Z,46.63
2022-11-26T10:57:21.388Z,47.57
2022-11-26T11:00:38.547Z,43.40
2022-11-26T11:03:59.622Z,44.13
2022-11-26T11:06:44.417Z,42.47
2022-11-26T11:09:35.144Z,38.47
2022-11-26T11:12:25.192Z,41.03
2022-11-26T11:15:22.093Z,36.23
2022-11-26T11:18:20.716Z,35.27
2022-11-26T11:21:20.218Z,35.63
2022-11-26T11:24:18.108Z,36.57
2022-11-26T11:27:07.307Z,36.90
2022-11-26T11:30:02.258Z,37.73
2022-11-26T11:32:52.092Z,34.03
2022-11-26T11:35:40.954Z,33.40
2022-11-26T11:38:32.325Z,37.13
2022-11-26T11:41:27.401Z,33.85
2022-11-26T11:44:19.560Z,35.90
2022-11-26T11:47:24.767Z,34.53
2022-11-26T11:50:22.363Z,33.60
2022-11-26T11:53:26.171Z,33.25
2022-11-26T11:56:26.882Z,32.08
2022-11-26T11:59:58.683Z,32.47
2022-11-26T12:02:57.898Z,32.75
2022-11-26T12:06:06.337Z,30.25
2022-11-26T12:09:07.944Z,30.20
2022-11-26T12:12:02.347Z,32.03
2022-11-26T12:14:53.963Z,29.55
2022-11-26T12:17:47.518Z,29.25
2022-11-26T12:20:41.897Z,31.40
2022-11-26T12:23:38.793Z,29.08
2022-11-26T12:26:34.574Z,30.92
2022-11-26T12:29:32.017Z,30.60
2022-11-26T12:32:27.554Z,29.77
2022-11-26T12:35:21.368Z,28.80
2022-11-26T12:38:16.999Z,27.58
2022-11-26T12:41:11.084Z,24.67
2022-11-26T12:44:05.935Z,29.13
2022-11-26T12:47:06.269Z,30.73
2022-11-26T12:50:07.513Z,28.65
2022-11-26T12:53:06.468Z,28.00
2022-11-26T12:56:04.998Z,31.77
2022-11-26T12:59:00.976Z,32.85
2022-11-26T13:01:50.180Z,29.35
2022-11-26T13:04:40.804Z,29.25
2022-11-26T13:07:47.285Z,25.85
2022-11-26T13:10:50.974Z,32.13
2022-11-26T13:13:47.516Z,33.78
2022-11-26T13:16:41.255Z,31.33
2022-11-26T13:19:34.680Z,34.63
2022-11-26T13:22:44.753Z,32.78
2022-11-26T13:25:39.333Z,32.88
2022-11-26T13:28:33.523Z,33.70
2022-11-26T13:31:29.673Z,33.60
2022-11-26T13:34:25.308Z,37.35
2022-11-26T13:37:20.158Z,35.05
2022-11-26T13:40:27.953Z,36.53
2022-11-26T13:43:39.911Z,34.95
2022-11-26T13:46:31.451Z,32.85
2022-11-26T13:49:22.760Z,38.70
2022-11-26T13:52:13.692Z,34.92
2022-11-26T13:55:07.492Z,41.45
2022-11-26T13:57:59.428Z,38.88
2022-11-26T14:00:50.137Z,37.92
2022-11-26T14:03:46.831Z,40.63
2022-11-26T14:06:36.204Z,43.90
2022-11-26T14:09:49.946Z,40.00
2022-11-26T14:13:13.008Z,40.03
2022-11-26T14:16:05.034Z,42.70
2022-11-26T14:19:01.260Z,40.80
2022-11-26T14:22:00.416Z,40.05
2022-11-26T14:24:56.516Z,42.70
2022-11-26T14:27:54.885Z,43.22
2022-11-26T14:30:43.923Z,41.20
2022-11-26T14:33:34.777Z,41.55
2022-11-26T14:36:25.340Z,44.35
2022-11-26T14:39:15.113Z,40.55
2022-11-26T14:42:06.590Z,45.80
2022-11-26T14:45:05.974Z,40.63
2022-11-26T14:47:55.296Z,41.10
2022-11-26T14:50:46.711Z,45.03
2022-11-26T14:53:36.639Z,44.47
2022-11-26T14:56:28.160Z,44.83
2022-11-26T14:59:19.626Z,43.27
2022-11-26T15:02:22.088Z,45.97
2022-11-26T15:05:17.472Z,47.97
2022-11-26T15:08:15.802Z,42.27
2022-11-26T15:11:08.613Z,45.60
2022-11-26T15:13:58.686Z,42.77
2022-11-26T15:16:56.104Z,42.83
2022-11-26T15:19:47.172Z,45.70
2022-11-26T15:22:39.596Z,43.20
2022-11-26T15:25:32.748Z,42.43
2022-11-26T15:28:24.440Z,44.27
2022-11-26T15:31:13.323Z,43.37
2022-11-26T15:34:02.602Z,41.63
2022-11-26T15:36:52.082Z,51.87
2022-11-26T15:39:41.540Z,45.40
2022-11-26T15:42:32.403Z,43.72
2022-11-26T15:45:24.334Z,46.60
2022-11-26T15:48:27.964Z,46.17
2022-11-26T15:51:35.150Z,45.13
2022-11-26T15:54:38.430Z,45.53
2022-11-26T15:57:40.706Z,46.27
2022-11-26T16:00:35.602Z,44.25
2022-11-26T16:03:36.862Z,44.30
2022-11-26T16:06:34.465Z,43.63
2022-11-26T16:09:28.212Z,44.20
2022-11-26T16:12:32.714Z,45.00
2022-11-26T16:15:26.672Z,43.40
2022-11-26T16:18:21.132Z,45.17
2022-11-26T16:21:18.416Z,44.17
2022-11-26T16:24:18.992Z,42.70
2022-11-26T16:27:25.634Z,44.37
2022-11-26T16:30:17.678Z,43.63
2022-11-26T16:33:08.626Z,43.20
2022-11-26T16:35:57.842Z,44.13
2022-11-26T16:38:47.442Z,43.00
2022-11-26T16:41:36.626Z,45.30
2022-11-26T16:44:25.549Z,44.03
2022-11-26T16:47:18.822Z,44.80
2022-11-26T16:50:18.408Z,44.83
2022-11-26T16:53:08.517Z,43.93
2022-11-26T16:55:58.405Z,45.23
2022-11-26T16:58:47.997Z,44.60
2022-11-26T17:01:37.375Z,43.20
2022-11-26T17:04:26.228Z,44.47
2022-11-26T17:07:19.162Z,43.73
2022-11-26T17:10:12.095Z,46.00
2022-11-26T17:13:00.672Z,45.70
2022-11-26T17:15:51.910Z,45.70
2022-11-26T17:18:41.486Z,44.37
2022-11-26T17:21:30.523Z,45.33
2022-11-26T17:24:24.681Z,44.30
2022-11-26T17:27:20.215Z,44.77
2022-11-26T17:30:13.907Z,43.93
2022-11-26T17:33:02.865Z,45.63
2022-11-26T17:35:52.230Z,43.93
2022-11-26T17:38:41.003Z,49.10
2022-11-26T17:41:31.718Z,46.60
2022-11-26T17:44:20.990Z,45.03
2022-11-26T17:47:17.230Z,41.93
2022-11-26T17:50:10.031Z,42.87
2022-11-26T17:52:58.804Z,44.63
2022-11-26T17:55:48.659Z,42.63
2022-11-26T17:58:39.508Z,45.50
2022-11-26T18:01:29.513Z,45.40
2022-11-26T18:04:19.232Z,43.40
2022-11-26T18:07:09.809Z,42.83
2022-11-26T18:09:58.883Z,41.83
2022-11-26T18:12:48.779Z,41.73
2022-11-26T18:15:39.168Z,42.37
2022-11-26T18:18:28.154Z,43.63
2022-11-26T18:21:18.112Z,40.60
2022-11-26T18:24:08.859Z,37.83
2022-11-26T18:26:58.607Z,38.77
2022-11-26T18:29:48.128Z,38.50
2022-11-26T18:32:39.305Z,38.10
2022-11-26T18:35:28.611Z,36.43
2022-11-26T18:38:17.510Z,39.37
2022-11-26T18:41:07.438Z,38.83
2022-11-26T18:43:56.905Z,40.23
2022-11-26T18:46:46.624Z,41.63
2022-11-26T18:49:37.286Z,39.33
2022-11-26T18:52:26.895Z,38.67
2022-11-26T18:55:16.903Z,39.53
2022-11-26T18:58:08.204Z,38.23
2022-11-26T19:00:59.079Z,39.97
2022-11-26T19:03:48.422Z,37.83
2022-11-26T19:06:39.045Z,42.87
2022-11-26T19:09:29.157Z,39.93
2022-11-26T19:12:18.526Z,41.67
2022-11-26T19:15:08.473Z,48.47
2022-11-26T19:17:57.477Z,44.33
2022-11-26T19:20:50.025Z,41.47
2022-11-26T19:23:40.597Z,41.60
2022-11-26T19:26:29.993Z,39.97
2022-11-26T19:29:19.217Z,43.93
2022-11-26T19:32:08.951Z,42.27
2022-11-26T19:35:04.173Z,42.33
2022-11-26T19:37:55.053Z,45.70
2022-11-26T19:40:45.338Z,49.23
2022-11-26T19:43:37.687Z,48.30
2022-11-26T19:46:27.126Z,43.13
2022-11-26T19:49:16.604Z,52.53
2022-11-26T19:52:06.389Z,47.10
2022-11-26T19:54:55.394Z,41.97
2022-11-26T19:57:45.712Z,46.77
2022-11-26T20:00:35.131Z,44.53
2022-11-26T20:03:24.881Z,45.73
2022-11-26T20:06:17.476Z,42.57
2022-11-26T20:09:08.571Z,43.77
2022-11-26T20:11:58.293Z,43.67
2022-11-26T20:14:49.140Z,44.23
2022-11-26T20:17:38.222Z,46.00
2022-11-26T20:20:27.409Z,46.73
2022-11-26T20:23:16.448Z,47.00
2022-11-26T20:26:13.796Z,44.43
2022-11-26T20:29:04.079Z,42.03
2022-11-26T20:31:55.324Z,43.30
2022-11-26T20:34:45.325Z,40.70
2022-11-26T20:37:35.086Z,39.73
2022-11-26T20:40:24.519Z,41.27
2022-11-26T20:43:13.530Z,45.97
2022-11-26T20:46:03.794Z,41.47
2022-11-26T20:48:54.318Z,39.67
2022-11-26T20:51:43.517Z,40.03
2022-11-26T20:54:33.145Z,39.77
2022-11-26T20:57:23.944Z,39.10
2022-11-26T21:00:16.982Z,38.43
2022-11-26T21:03:06.697Z,40.63
2022-11-26T21:05:57.899Z,41.33
2022-11-26T21:08:47.165Z,40.57
2022-11-26T21:11:36.663Z,40.53
2022-11-26T21:14:25.760Z,40.90
2022-11-26T21:17:14.903Z,40.13
2022-11-26T21:20:04.694Z,40.63
2022-11-26T21:22:55.222Z,39.97
2022-11-26T21:25:45.082Z,38.60
2022-11-26T21:28:34.650Z,39.53
2022-11-26T21:31:24.948Z,40.00
2022-11-26T21:34:14.692Z,38.07
2022-11-26T21:37:03.907Z,40.53
2022-11-26T21:39:55.026Z,38.83
2022-11-26T21:42:44.548Z,36.93
2022-11-26T21:45:33.691Z,36.77
2022-11-26T21:48:23.001Z,36.67
2022-11-26T21:51:15.414Z,37.50
2022-11-26T21:54:04.574Z,35.63
2022-11-26T21:56:54.992Z,36.00
2022-11-26T21:59:44.616Z,35.20
2022-11-26T22:02:33.595Z,34.33
2022-11-26T22:05:22.642Z,31.17
2022-11-26T22:08:12.234Z,29.67
2022-11-26T22:11:01.896Z,29.53
2022-11-26T22:13:52.647Z,31.83
2022-11-26T22:16:41.736Z,29.33
2022-11-26T22:19:31.642Z,27.73
2022-11-26T22:22:21.116Z,29.00
2022-11-26T22:25:11.303Z,26.67
2022-11-26T22:28:00.862Z,27.97
2022-11-26T22:30:51.924Z,26.20
2022-11-26T22:33:41.276Z,24.63
2022-11-26T22:36:30.614Z,25.27
2022-11-26T22:39:20.252Z,25.67
2022-11-26T22:42:09.655Z,25.80
2022-11-26T22:44:58.873Z,24.70
2022-11-26T22:47:52.677Z,25.43
2022-11-26T22:50:42.792Z,25.60
2022-11-26T22:53:33.571Z,27.37
2022-11-26T22:56:23.626Z,26.67
2022-11-26T22:59:15.222Z,25.37
2022-11-26T23:02:04.071Z,25.03
2022-11-26T23:04:56.383Z,23.07
2022-11-26T23:07:45.413Z,25.57
2022-11-26T23:10:34.099Z,24.17
2022-11-26T23:13:23.104Z,22.23
2022-11-26T23:16:12.982Z,21.47
2022-11-26T23:19:02.816Z,18.87
2022-11-26T23:21:53.785Z,17.97
2022-11-26T23:24:44.427Z,17.33
2022-11-26T23:27:33.635Z,17.47
2022-11-26T23:30:23.405Z,16.77
2022-11-26T23:33:12.647Z,17.30
2022-11-26T23:36:01.729Z,15.30
2022-11-26T23:38:51.931Z,15.50
2022-11-26T23:41:41.413Z,15.53
2022-11-26T23:44:31.004Z,15.67
2022-11-26T23:47:20.695Z,16.77
2022-11-26T23:50:10.106Z,18.43
2022-11-26T23:52:59.639Z,18.00
2022-11-26T23:55:52.234Z,19.50
2022-11-26T23:58:41.986Z,21.13
